sensor_id;sensor_type;location;lat;lon;timestamp;pressure;altitude;pressure_sealevel;temperature;humidity
8949;BME280;4509;51.522;9.910;2022-07-21T00:01:07;100014.03;;;24.38;63.36
8949;BME280;4509;51.522;9.910;2022-07-21T00:03:34;100027.44;;;24.38;63.56
8949;BME280;4509;51.522;9.910;2022-07-21T00:06:01;100018.84;;;24.49;61.33
8949;BME280;4509;51.522;9.910;2022-07-21T00:08:29;99997.03;;;24.52;59.55
8949;BME280;4509;51.522;9.910;2022-07-21T00:10:59;99980.28;;;24.44;62.50
8949;BME280;4509;51.522;9.910;2022-07-21T00:13:27;99973.19;;;24.36;63.44
8949;BME280;4509;51.522;9.910;2022-07-21T00:15:54;99974.28;;;24.42;60.92
8949;BME280;4509;51.522;9.910;2022-07-21T00:18:21;99958.16;;;24.35;61.65
8949;BME280;4509;51.522;9.910;2022-07-21T00:20:48;99958.53;;;24.32;60.48
8949;BME280;4509;51.522;9.910;2022-07-21T00:23:15;99953.19;;;24.32;61.35
8949;BME280;4509;51.522;9.910;2022-07-21T00:25:44;99962.88;;;24.33;61.30
8949;BME280;4509;51.522;9.910;2022-07-21T00:28:10;99976.47;;;24.32;60.47
8949;BME280;4509;51.522;9.910;2022-07-21T00:30:37;99972.72;;;24.05;69.74
8949;BME280;4509;51.522;9.910;2022-07-21T00:33:04;99987.25;;;24.17;63.06
8949;BME280;4509;51.522;9.910;2022-07-21T00:35:31;99982.25;;;24.14;62.24
8949;BME280;4509;51.522;9.910;2022-07-21T00:38:01;99973.38;;;24.07;63.40
8949;BME280;4509;51.522;9.910;2022-07-21T00:40:28;99957.03;;;24.02;65.31
8949;BME280;4509;51.522;9.910;2022-07-21T00:42:57;99940.59;;;24.05;63.09
8949;BME280;4509;51.522;9.910;2022-07-21T00:45:24;99919.91;;;24.20;63.31
8949;BME280;4509;51.522;9.910;2022-07-21T00:47:51;99898.75;;;24.04;63.47
8949;BME280;4509;51.522;9.910;2022-07-21T00:50:20;99900.22;;;24.06;64.29
8949;BME280;4509;51.522;9.910;2022-07-21T00:52:47;99921.16;;;23.96;68.64
8949;BME280;4509;51.522;9.910;2022-07-21T00:55:16;99929.16;;;23.90;67.47
8949;BME280;4509;51.522;9.910;2022-07-21T00:57:44;99932.19;;;23.87;66.29
8949;BME280;4509;51.522;9.910;2022-07-21T01:00:15;99938.28;;;23.74;68.71
8949;BME280;4509;51.522;9.910;2022-07-21T01:02:43;99948.53;;;23.70;75.10
8949;BME280;4509;51.522;9.910;2022-07-21T01:05:12;99947.84;;;23.47;78.18
8949;BME280;4509;51.522;9.910;2022-07-21T01:07:41;99943.13;;;23.49;71.78
8949;BME280;4509;51.522;9.910;2022-07-21T01:10:09;99944.16;;;23.48;68.79
8949;BME280;4509;51.522;9.910;2022-07-21T01:12:36;99923.00;;;23.32;77.34
8949;BME280;4509;51.522;9.910;2022-07-21T01:15:03;99921.56;;;23.14;78.51
8949;BME280;4509;51.522;9.910;2022-07-21T01:17:32;99907.44;;;23.21;74.45
8949;BME280;4509;51.522;9.910;2022-07-21T01:20:02;99927.56;;;23.17;73.08
8949;BME280;4509;51.522;9.910;2022-07-21T01:22:32;99913.88;;;22.90;84.89
8949;BME280;4509;51.522;9.910;2022-07-21T01:24:59;99923.91;;;22.73;89.47
8949;BME280;4509;51.522;9.910;2022-07-21T01:27:26;99919.69;;;22.94;74.84
8949;BME280;4509;51.522;9.910;2022-07-21T01:29:53;99930.38;;;22.94;76.43
8949;BME280;4509;51.522;9.910;2022-07-21T01:32:21;99946.22;;;22.95;79.16
8949;BME280;4509;51.522;9.910;2022-07-21T01:34:48;99944.44;;;23.02;72.61
8949;BME280;4509;51.522;9.910;2022-07-21T01:37:15;99952.66;;;23.01;82.37
8949;BME280;4509;51.522;9.910;2022-07-21T01:39:48;99951.75;;;22.94;75.78
8949;BME280;4509;51.522;9.910;2022-07-21T01:42:32;99934.34;;;22.98;75.69
8949;BME280;4509;51.522;9.910;2022-07-21T01:44:59;99935.06;;;22.92;79.56
8949;BME280;4509;51.522;9.910;2022-07-21T01:47:25;99939.06;;;22.81;75.07
8949;BME280;4509;51.522;9.910;2022-07-21T01:49:53;99926.72;;;22.80;77.00
8949;BME280;4509;51.522;9.910;2022-07-21T01:52:20;99913.72;;;22.77;77.58
8949;BME280;4509;51.522;9.910;2022-07-21T01:54:48;99902.81;;;22.64;76.40
8949;BME280;4509;51.522;9.910;2022-07-21T01:57:15;99898.94;;;22.66;77.38
8949;BME280;4509;51.522;9.910;2022-07-21T01:59:42;99886.25;;;22.54;84.52
8949;BME280;4509;51.522;9.910;2022-07-21T02:02:10;99887.81;;;22.63;77.96
8949;BME280;4509;51.522;9.910;2022-07-21T02:04:37;99884.41;;;22.54;78.29
8949;BME280;4509;51.522;9.910;2022-07-21T02:07:03;99883.94;;;22.51;77.17
8949;BME280;4509;51.522;9.910;2022-07-21T02:09:30;99902.28;;;22.39;84.61
8949;BME280;4509;51.522;9.910;2022-07-21T02:11:58;99924.72;;;22.30;86.34
8949;BME280;4509;51.522;9.910;2022-07-21T02:14:25;99910.19;;;22.32;86.01
8949;BME280;4509;51.522;9.910;2022-07-21T02:16:52;99904.13;;;22.38;81.05
8949;BME280;4509;51.522;9.910;2022-07-21T02:19:19;99905.66;;;22.33;90.45
8949;BME280;4509;51.522;9.910;2022-07-21T02:21:46;99917.34;;;22.17;86.87
8949;BME280;4509;51.522;9.910;2022-07-21T02:24:12;99926.72;;;22.13;83.14
8949;BME280;4509;51.522;9.910;2022-07-21T02:26:39;99929.69;;;22.18;82.18
8949;BME280;4509;51.522;9.910;2022-07-21T02:29:08;99933.38;;;22.17;85.85
8949;BME280;4509;51.522;9.910;2022-07-21T02:31:34;99933.84;;;22.21;79.54
8949;BME280;4509;51.522;9.910;2022-07-21T02:34:01;99926.72;;;22.13;92.43
8949;BME280;4509;51.522;9.910;2022-07-21T02:36:28;99927.75;;;22.12;91.65
8949;BME280;4509;51.522;9.910;2022-07-21T02:38:55;99917.19;;;21.96;90.49
8949;BME280;4509;51.522;9.910;2022-07-21T02:41:21;99927.84;;;22.04;86.89
8949;BME280;4509;51.522;9.910;2022-07-21T02:43:48;99929.75;;;22.10;79.21
8949;BME280;4509;51.522;9.910;2022-07-21T02:46:16;99922.13;;;22.07;83.64
8949;BME280;4509;51.522;9.910;2022-07-21T02:48:43;99935.19;;;22.02;81.52
8949;BME280;4509;51.522;9.910;2022-07-21T02:51:09;99944.34;;;21.99;83.21
8949;BME280;4509;51.522;9.910;2022-07-21T02:53:36;99947.53;;;22.03;80.23
8949;BME280;4509;51.522;9.910;2022-07-21T02:56:03;99945.63;;;21.89;93.42
8949;BME280;4509;51.522;9.910;2022-07-21T02:58:30;99941.06;;;21.74;91.11
8949;BME280;4509;51.522;9.910;2022-07-21T03:00:58;99934.88;;;21.74;92.62
8949;BME280;4509;51.522;9.910;2022-07-21T03:03:28;99923.56;;;21.72;97.34
8949;BME280;4509;51.522;9.910;2022-07-21T03:05:56;99927.88;;;21.73;82.66
8949;BME280;4509;51.522;9.910;2022-07-21T03:08:23;99921.81;;;21.64;90.00
8949;BME280;4509;51.522;9.910;2022-07-21T03:10:50;99925.66;;;21.62;90.50
8949;BME280;4509;51.522;9.910;2022-07-21T03:13:18;99937.50;;;21.59;90.61
8949;BME280;4509;51.522;9.910;2022-07-21T03:15:44;99953.38;;;21.53;96.75
8949;BME280;4509;51.522;9.910;2022-07-21T03:18:11;99962.22;;;21.53;88.16
8949;BME280;4509;51.522;9.910;2022-07-21T03:20:41;99958.31;;;21.41;100.00
8949;BME280;4509;51.522;9.910;2022-07-21T03:23:08;99953.03;;;21.33;100.00
8949;BME280;4509;51.522;9.910;2022-07-21T03:25:35;99957.56;;;21.24;100.00
8949;BME280;4509;51.522;9.910;2022-07-21T03:28:02;99974.75;;;21.14;98.69
8949;BME280;4509;51.522;9.910;2022-07-21T03:30:29;99977.44;;;21.14;98.65
8949;BME280;4509;51.522;9.910;2022-07-21T03:32:56;99979.94;;;21.15;96.37
8949;BME280;4509;51.522;9.910;2022-07-21T03:35:23;99987.09;;;21.15;100.00
8949;BME280;4509;51.522;9.910;2022-07-21T03:37:53;99980.59;;;21.09;99.62
8949;BME280;4509;51.522;9.910;2022-07-21T03:40:22;99984.84;;;20.95;99.16
8949;BME280;4509;51.522;9.910;2022-07-21T03:42:50;99991.00;;;20.96;91.19
8949;BME280;4509;51.522;9.910;2022-07-21T03:45:16;99992.28;;;21.08;100.00
8949;BME280;4509;51.522;9.910;2022-07-21T03:47:43;99992.28;;;21.00;89.91
8949;BME280;4509;51.522;9.910;2022-07-21T03:50:10;100003.78;;;21.00;100.00
8949;BME280;4509;51.522;9.910;2022-07-21T03:52:38;100013.66;;;20.92;100.00
8949;BME280;4509;51.522;9.910;2022-07-21T03:55:07;100011.50;;;20.95;96.97
8949;BME280;4509;51.522;9.910;2022-07-21T03:57:36;100012.31;;;20.96;100.00
8949;BME280;4509;51.522;9.910;2022-07-21T04:00:05;100021.66;;;20.92;100.00
8949;BME280;4509;51.522;9.910;2022-07-21T04:02:32;100020.66;;;20.93;100.00
8949;BME280;4509;51.522;9.910;2022-07-21T04:04:59;100018.50;;;20.88;100.00
8949;BME280;4509;51.522;9.910;2022-07-21T04:07:25;100014.53;;;20.76;100.00
8949;BME280;4509;51.522;9.910;2022-07-21T04:09:52;100015.00;;;20.80;100.00
8949;BME280;4509;51.522;9.910;2022-07-21T04:12:25;100034.19;;;20.75;100.00
8949;BME280;4509;51.522;9.910;2022-07-21T04:14:51;100029.16;;;20.88;91.30
8949;BME280;4509;51.522;9.910;2022-07-21T04:17:18;100022.34;;;20.86;97.79
8949;BME280;4509;51.522;9.910;2022-07-21T04:19:44;100034.66;;;20.87;100.00
8949;BME280;4509;51.522;9.910;2022-07-21T04:22:11;100036.81;;;20.91;100.00
8949;BME280;4509;51.522;9.910;2022-07-21T04:24:38;100034.16;;;20.91;100.00
8949;BME280;4509;51.522;9.910;2022-07-21T04:27:05;100038.16;;;20.95;100.00
8949;BME280;4509;51.522;9.910;2022-07-21T04:29:33;100024.66;;;20.89;100.00
8949;BME280;4509;51.522;9.910;2022-07-21T04:31:59;100023.16;;;20.86;100.00
8949;BME280;4509;51.522;9.910;2022-07-21T04:34:26;100021.34;;;20.79;100.00
8949;BME280;4509;51.522;9.910;2022-07-21T04:36:53;100032.19;;;20.77;98.87
8949;BME280;4509;51.522;9.910;2022-07-21T04:39:20;100032.19;;;20.77;100.00
8949;BME280;4509;51.522;9.910;2022-07-21T04:41:47;100040.53;;;20.74;100.00
8949;BME280;4509;51.522;9.910;2022-07-21T04:44:14;100040.53;;;20.74;99.87
8949;BME280;4509;51.522;9.910;2022-07-21T04:46:42;100041.19;;;20.76;100.00
8949;BME280;4509;51.522;9.910;2022-07-21T04:49:08;100034.16;;;20.83;100.00
8949;BME280;4509;51.522;9.910;2022-07-21T04:51:35;100031.16;;;20.86;100.00
8949;BME280;4509;51.522;9.910;2022-07-21T04:54:02;100041.81;;;20.86;100.00
8949;BME280;4509;51.522;9.910;2022-07-21T04:56:29;100042.97;;;20.84;100.00
8949;BME280;4509;51.522;9.910;2022-07-21T04:58:58;100041.81;;;20.94;96.83
8949;BME280;4509;51.522;9.910;2022-07-21T05:01:25;100041.09;;;21.00;100.00
8949;BME280;4509;51.522;9.910;2022-07-21T05:03:53;100053.09;;;21.04;100.00
8949;BME280;4509;51.522;9.910;2022-07-21T05:06:19;100062.75;;;21.05;100.00
8949;BME280;4509;51.522;9.910;2022-07-21T05:08:46;100056.41;;;21.06;100.00
8949;BME280;4509;51.522;9.910;2022-07-21T05:11:14;100061.59;;;21.00;100.00
8949;BME280;4509;51.522;9.910;2022-07-21T05:13:40;100070.09;;;21.03;100.00
8949;BME280;4509;51.522;9.910;2022-07-21T05:16:07;100067.59;;;21.02;100.00
8949;BME280;4509;51.522;9.910;2022-07-21T05:18:34;100070.28;;;20.94;100.00
8949;BME280;4509;51.522;9.910;2022-07-21T05:21:02;100059.94;;;20.99;100.00
8949;BME280;4509;51.522;9.910;2022-07-21T05:23:29;100057.94;;;21.01;100.00
8949;BME280;4509;51.522;9.910;2022-07-21T05:25:56;100057.94;;;21.01;100.00
8949;BME280;4509;51.522;9.910;2022-07-21T05:28:23;100063.09;;;21.02;100.00
8949;BME280;4509;51.522;9.910;2022-07-21T05:30:49;100064.25;;;21.08;100.00
8949;BME280;4509;51.522;9.910;2022-07-21T05:33:16;100059.53;;;21.18;100.00
8949;BME280;4509;51.522;9.910;2022-07-21T05:35:43;100061.56;;;21.24;100.00
8949;BME280;4509;51.522;9.910;2022-07-21T05:38:11;100069.06;;;21.21;100.00
8949;BME280;4509;51.522;9.910;2022-07-21T05:40:38;100077.38;;;21.26;100.00
8949;BME280;4509;51.522;9.910;2022-07-21T05:43:05;100068.56;;;21.09;100.00
8949;BME280;4509;51.522;9.910;2022-07-21T05:45:31;100083.06;;;21.06;100.00
8949;BME280;4509;51.522;9.910;2022-07-21T05:47:58;100092.06;;;21.05;100.00
8949;BME280;4509;51.522;9.910;2022-07-21T05:50:25;100087.25;;;21.01;100.00
8949;BME280;4509;51.522;9.910;2022-07-21T05:52:52;100083.25;;;20.97;100.00
8949;BME280;4509;51.522;9.910;2022-07-21T05:55:21;100077.94;;;20.89;100.00
8949;BME280;4509;51.522;9.910;2022-07-21T05:57:48;100074.63;;;20.79;100.00
8949;BME280;4509;51.522;9.910;2022-07-21T06:00:15;100073.00;;;20.78;100.00
8949;BME280;4509;51.522;9.910;2022-07-21T06:02:43;100068.00;;;20.74;100.00
8949;BME280;4509;51.522;9.910;2022-07-21T06:05:09;100075.03;;;20.59;100.00
8949;BME280;4509;51.522;9.910;2022-07-21T06:07:37;100074.16;;;20.75;100.00
8949;BME280;4509;51.522;9.910;2022-07-21T06:10:04;100085.81;;;20.74;100.00
8949;BME280;4509;51.522;9.910;2022-07-21T06:12:33;100080.47;;;20.74;100.00
8949;BME280;4509;51.522;9.910;2022-07-21T06:14:59;100075.28;;;20.81;100.00
8949;BME280;4509;51.522;9.910;2022-07-21T06:17:26;100068.13;;;20.89;100.00
8949;BME280;4509;51.522;9.910;2022-07-21T06:19:56;100061.91;;;21.05;100.00
8949;BME280;4509;51.522;9.910;2022-07-21T06:22:23;100067.53;;;21.26;100.00
8949;BME280;4509;51.522;9.910;2022-07-21T06:24:50;100070.63;;;21.46;100.00
8949;BME280;4509;51.522;9.910;2022-07-21T06:27:17;100071.06;;;21.58;100.00
8949;BME280;4509;51.522;9.910;2022-07-21T06:29:45;100066.81;;;21.71;100.00
8949;BME280;4509;51.522;9.910;2022-07-21T06:32:12;100063.41;;;21.86;100.00
8949;BME280;4509;51.522;9.910;2022-07-21T06:34:38;100070.22;;;22.19;100.00
8949;BME280;4509;51.522;9.910;2022-07-21T06:37:05;100073.19;;;22.24;100.00
8949;BME280;4509;51.522;9.910;2022-07-21T06:39:32;100073.63;;;22.28;100.00
8949;BME280;4509;51.522;9.910;2022-07-21T06:41:59;100075.25;;;22.14;100.00
8949;BME280;4509;51.522;9.910;2022-07-21T06:44:25;100074.66;;;22.04;100.00
8949;BME280;4509;51.522;9.910;2022-07-21T06:46:53;100071.06;;;21.89;100.00
8949;BME280;4509;51.522;9.910;2022-07-21T06:49:20;100075.78;;;21.78;100.00
8949;BME280;4509;51.522;9.910;2022-07-21T06:51:48;100078.34;;;21.95;100.00
8949;BME280;4509;51.522;9.910;2022-07-21T06:54:15;100085.56;;;22.40;100.00
8949;BME280;4509;51.522;9.910;2022-07-21T06:56:41;100073.22;;;22.76;100.00
8949;BME280;4509;51.522;9.910;2022-07-21T06:59:08;100084.44;;;23.09;100.00
8949;BME280;4509;51.522;9.910;2022-07-21T07:01:35;100091.13;;;23.49;98.21
8949;BME280;4509;51.522;9.910;2022-07-21T07:04:03;100096.41;;;23.58;96.72
8949;BME280;4509;51.522;9.910;2022-07-21T07:06:30;100097.22;;;23.58;94.48
8949;BME280;4509;51.522;9.910;2022-07-21T07:08:57;100103.88;;;23.47;91.77
8949;BME280;4509;51.522;9.910;2022-07-21T07:11:23;100098.34;;;23.34;96.98
8949;BME280;4509;51.522;9.910;2022-07-21T07:13:50;100101.00;;;23.49;95.19
8949;BME280;4509;51.522;9.910;2022-07-21T07:16:17;100111.31;;;23.81;95.09
8949;BME280;4509;51.522;9.910;2022-07-21T07:18:45;100114.97;;;23.95;92.62
8949;BME280;4509;51.522;9.910;2022-07-21T07:21:13;100119.84;;;24.06;89.72
8949;BME280;4509;51.522;9.910;2022-07-21T07:23:40;100111.44;;;24.31;94.42
8949;BME280;4509;51.522;9.910;2022-07-21T07:26:08;100105.13;;;24.60;86.92
8949;BME280;4509;51.522;9.910;2022-07-21T07:28:35;100118.81;;;24.43;85.89
8949;BME280;4509;51.522;9.910;2022-07-21T07:31:02;100124.09;;;24.37;84.56
8949;BME280;4509;51.522;9.910;2022-07-21T07:33:29;100120.91;;;24.48;84.86
8949;BME280;4509;51.522;9.910;2022-07-21T07:35:56;100121.09;;;24.46;86.89
8949;BME280;4509;51.522;9.910;2022-07-21T07:38:24;100122.59;;;24.77;86.94
8949;BME280;4509;51.522;9.910;2022-07-21T07:40:51;100117.31;;;24.90;86.18
8949;BME280;4509;51.522;9.910;2022-07-21T07:43:18;100128.09;;;25.25;84.17
8949;BME280;4509;51.522;9.910;2022-07-21T07:45:45;100130.59;;;25.26;84.23
8949;BME280;4509;51.522;9.910;2022-07-21T07:48:12;100139.25;;;25.28;83.30
8949;BME280;4509;51.522;9.910;2022-07-21T07:50:39;100129.66;;;25.47;82.87
8949;BME280;4509;51.522;9.910;2022-07-21T07:53:06;100132.16;;;25.48;79.83
8949;BME280;4509;51.522;9.910;2022-07-21T07:55:34;100132.97;;;25.49;81.32
8949;BME280;4509;51.522;9.910;2022-07-21T07:58:01;100128.09;;;25.59;81.72
8949;BME280;4509;51.522;9.910;2022-07-21T08:00:28;100135.19;;;25.73;80.80
8949;BME280;4509;51.522;9.910;2022-07-21T08:02:55;100143.69;;;25.42;84.08
8949;BME280;4509;51.522;9.910;2022-07-21T08:05:21;100137.50;;;25.42;80.87
8949;BME280;4509;51.522;9.910;2022-07-21T08:07:48;100136.28;;;24.89;86.23
8949;BME280;4509;51.522;9.910;2022-07-21T08:10:15;100142.75;;;24.73;85.55
8949;BME280;4509;51.522;9.910;2022-07-21T08:12:43;100143.91;;;24.85;85.97
8949;BME280;4509;51.522;9.910;2022-07-21T08:15:10;100133.47;;;25.25;86.64
8949;BME280;4509;51.522;9.910;2022-07-21T08:17:37;100134.81;;;25.76;84.95
8949;BME280;4509;51.522;9.910;2022-07-21T08:20:04;100123.56;;;26.14;77.26
8949;BME280;4509;51.522;9.910;2022-07-21T08:22:31;100130.03;;;26.46;75.80
8949;BME280;4509;51.522;9.910;2022-07-21T08:24:58;100131.50;;;26.75;75.37
8949;BME280;4509;51.522;9.910;2022-07-21T08:27:25;100137.06;;;26.60;73.78
8949;BME280;4509;51.522;9.910;2022-07-21T08:29:53;100131.69;;;26.53;77.12
8949;BME280;4509;51.522;9.910;2022-07-21T08:32:23;100137.19;;;26.12;73.54
8949;BME280;4509;51.522;9.910;2022-07-21T08:34:50;100130.19;;;25.64;74.96
8949;BME280;4509;51.522;9.910;2022-07-21T08:37:19;100130.81;;;25.66;74.15
8949;BME280;4509;51.522;9.910;2022-07-21T08:39:46;100128.34;;;25.30;76.89
8949;BME280;4509;51.522;9.910;2022-07-21T08:42:14;100132.97;;;25.49;77.52
8949;BME280;4509;51.522;9.910;2022-07-21T08:44:42;100139.06;;;25.64;75.14
8949;BME280;4509;51.522;9.910;2022-07-21T08:47:10;100138.09;;;25.72;78.09
8949;BME280;4509;51.522;9.910;2022-07-21T08:49:39;100134.81;;;25.83;74.66
8949;BME280;4509;51.522;9.910;2022-07-21T08:52:06;100140.81;;;25.85;74.31
8949;BME280;4509;51.522;9.910;2022-07-21T08:54:33;100130.22;;;25.70;76.62
8949;BME280;4509;51.522;9.910;2022-07-21T08:57:03;100134.03;;;26.02;72.40
8949;BME280;4509;51.522;9.910;2022-07-21T08:59:31;100138.31;;;26.31;71.95
8949;BME280;4509;51.522;9.910;2022-07-21T09:01:58;100138.72;;;26.48;69.26
8949;BME280;4509;51.522;9.910;2022-07-21T09:04:31;100135.66;;;26.71;71.65
8949;BME280;4509;51.522;9.910;2022-07-21T09:07:01;100137.31;;;26.72;68.67
8949;BME280;4509;51.522;9.910;2022-07-21T09:09:31;100134.00;;;26.70;66.04
8949;BME280;4509;51.522;9.910;2022-07-21T09:12:03;100132.13;;;26.70;67.98
8949;BME280;4509;51.522;9.910;2022-07-21T09:14:32;100127.59;;;26.71;68.54
8949;BME280;4509;51.522;9.910;2022-07-21T09:17:02;100136.25;;;26.86;67.06
8949;BME280;4509;51.522;9.910;2022-07-21T09:19:34;100118.25;;;26.86;65.32
8949;BME280;4509;51.522;9.910;2022-07-21T09:22:05;100122.38;;;27.15;66.96
8949;BME280;4509;51.522;9.910;2022-07-21T09:24:33;100128.16;;;27.19;65.24
8949;BME280;4509;51.522;9.910;2022-07-21T09:27:08;100127.38;;;26.66;66.77
8949;BME280;4509;51.522;9.910;2022-07-21T09:29:42;100126.31;;;26.47;68.78
8949;BME280;4509;51.522;9.910;2022-07-21T09:32:20;100129.22;;;26.59;69.20
8949;BME280;4509;51.522;9.910;2022-07-21T09:34:50;100123.00;;;26.32;70.76
8949;BME280;4509;51.522;9.910;2022-07-21T09:37:18;100138.03;;;26.19;71.22
8949;BME280;4509;51.522;9.910;2022-07-21T09:39:48;100124.16;;;26.09;70.27
8949;BME280;4509;51.522;9.910;2022-07-21T09:42:18;100132.00;;;25.98;70.46
8949;BME280;4509;51.522;9.910;2022-07-21T09:44:46;100131.91;;;26.59;70.06
8949;BME280;4509;51.522;9.910;2022-07-21T09:47:20;100116.56;;;27.12;64.60
8949;BME280;4509;51.522;9.910;2022-07-21T09:49:49;100122.53;;;27.34;64.04
8949;BME280;4509;51.522;9.910;2022-07-21T09:52:23;100121.16;;;26.85;63.49
8949;BME280;4509;51.522;9.910;2022-07-21T09:54:52;100118.22;;;27.13;63.34
8949;BME280;4509;51.522;9.910;2022-07-21T09:57:20;100122.31;;;27.42;61.72
8949;BME280;4509;51.522;9.910;2022-07-21T09:59:48;100117.59;;;27.24;62.91
8949;BME280;4509;51.522;9.910;2022-07-21T10:02:17;100124.66;;;27.25;63.60
8949;BME280;4509;51.522;9.910;2022-07-21T10:04:46;100124.13;;;27.48;63.16
8949;BME280;4509;51.522;9.910;2022-07-21T10:07:17;100121.00;;;28.09;60.84
8949;BME280;4509;51.522;9.910;2022-07-21T10:09:44;100124.19;;;28.37;59.92
8949;BME280;4509;51.522;9.910;2022-07-21T10:12:11;100123.47;;;28.10;59.78
8949;BME280;4509;51.522;9.910;2022-07-21T10:14:38;100124.09;;;28.12;58.55
8949;BME280;4509;51.522;9.910;2022-07-21T10:17:06;100121.09;;;27.96;60.85
8949;BME280;4509;51.522;9.910;2022-07-21T10:19:37;100123.13;;;28.00;61.61
8949;BME280;4509;51.522;9.910;2022-07-21T10:22:12;100109.16;;;27.78;60.40
8949;BME280;4509;51.522;9.910;2022-07-21T10:24:47;100108.97;;;28.11;59.96
8949;BME280;4509;51.522;9.910;2022-07-21T10:27:14;100111.63;;;28.18;58.92
8949;BME280;4509;51.522;9.910;2022-07-21T10:29:51;100107.28;;;28.48;58.43
8949;BME280;4509;51.522;9.910;2022-07-21T10:32:20;100107.31;;;28.42;55.99
8949;BME280;4509;51.522;9.910;2022-07-21T10:34:48;100108.81;;;28.38;54.09
8949;BME280;4509;51.522;9.910;2022-07-21T10:37:43;100112.59;;;27.92;57.52
8949;BME280;4509;51.522;9.910;2022-07-21T10:40:37;100112.75;;;27.52;58.73
8949;BME280;4509;51.522;9.910;2022-07-21T10:43:36;100117.41;;;27.83;60.59
8949;BME280;4509;51.522;9.910;2022-07-21T10:46:36;100110.41;;;27.76;57.38
8949;BME280;4509;51.522;9.910;2022-07-21T10:49:08;100123.09;;;27.62;58.55
8949;BME280;4509;51.522;9.910;2022-07-21T10:51:37;100123.88;;;27.69;60.21
8949;BME280;4509;51.522;9.910;2022-07-21T10:54:24;100118.84;;;28.24;58.23
8949;BME280;4509;51.522;9.910;2022-07-21T10:57:28;100111.78;;;29.04;56.08
8949;BME280;4509;51.522;9.910;2022-07-21T11:00:21;100111.78;;;28.30;54.98
8949;BME280;4509;51.522;9.910;2022-07-21T11:02:51;100121.69;;;28.36;54.16
8949;BME280;4509;51.522;9.910;2022-07-21T11:05:19;100106.78;;;28.58;54.78
8949;BME280;4509;51.522;9.910;2022-07-21T11:08:25;100100.16;;;28.29;54.61
8949;BME280;4509;51.522;9.910;2022-07-21T11:11:07;100091.19;;;28.60;56.39
8949;BME280;4509;51.522;9.910;2022-07-21T11:14:00;100098.19;;;28.68;55.27
8949;BME280;4509;51.522;9.910;2022-07-21T11:17:00;100092.06;;;29.04;54.11
8949;BME280;4509;51.522;9.910;2022-07-21T11:19:36;100084.06;;;29.52;51.63
8949;BME280;4509;51.522;9.910;2022-07-21T11:22:19;100095.56;;;29.47;50.42
8949;BME280;4509;51.522;9.910;2022-07-21T11:24:59;100096.75;;;29.51;51.74
8949;BME280;4509;51.522;9.910;2022-07-21T11:27:29;100090.75;;;29.68;49.25
8949;BME280;4509;51.522;9.910;2022-07-21T11:30:11;100084.00;;;30.18;51.12
8949;BME280;4509;51.522;9.910;2022-07-21T11:32:46;100088.53;;;30.48;47.96
8949;BME280;4509;51.522;9.910;2022-07-21T11:35:14;100087.78;;;30.17;48.34
8949;BME280;4509;51.522;9.910;2022-07-21T11:37:45;100086.59;;;30.90;47.91
8949;BME280;4509;51.522;9.910;2022-07-21T11:40:27;100085.00;;;31.41;45.82
8949;BME280;4509;51.522;9.910;2022-07-21T11:43:11;100085.91;;;31.58;45.42
8949;BME280;4509;51.522;9.910;2022-07-21T11:45:39;100084.53;;;31.44;44.32
8949;BME280;4509;51.522;9.910;2022-07-21T11:48:30;100080.63;;;31.51;44.72
8949;BME280;4509;51.522;9.910;2022-07-21T11:50:59;100086.28;;;31.50;43.98
8949;BME280;4509;51.522;9.910;2022-07-21T11:53:26;100084.47;;;30.92;45.23
8949;BME280;4509;51.522;9.910;2022-07-21T11:55:53;100082.22;;;30.65;45.26
8949;BME280;4509;51.522;9.910;2022-07-21T11:58:20;100078.66;;;30.53;44.58
8949;BME280;4509;51.522;9.910;2022-07-21T12:00:48;100066.44;;;30.39;46.32
8949;BME280;4509;51.522;9.910;2022-07-21T12:03:18;100078.00;;;30.58;46.56
8949;BME280;4509;51.522;9.910;2022-07-21T12:05:47;100071.88;;;30.86;50.02
8949;BME280;4509;51.522;9.910;2022-07-21T12:08:14;100066.19;;;30.99;45.52
8949;BME280;4509;51.522;9.910;2022-07-21T12:10:41;100080.34;;;30.89;45.10
8949;BME280;4509;51.522;9.910;2022-07-21T12:13:07;100070.69;;;30.82;47.86
8949;BME280;4509;51.522;9.910;2022-07-21T12:15:39;100068.00;;;30.58;46.75
8949;BME280;4509;51.522;9.910;2022-07-21T12:18:31;100073.31;;;30.77;46.57
8949;BME280;4509;51.522;9.910;2022-07-21T12:21:10;100063.88;;;30.79;47.74
8949;BME280;4509;51.522;9.910;2022-07-21T12:23:50;100053.63;;;30.81;46.02
8949;BME280;4509;51.522;9.910;2022-07-21T12:26:21;100072.13;;;30.61;46.07
8949;BME280;4509;51.522;9.910;2022-07-21T12:28:49;100069.50;;;30.54;46.09
8949;BME280;4509;51.522;9.910;2022-07-21T12:31:20;100061.25;;;30.49;45.41
8949;BME280;4509;51.522;9.910;2022-07-21T12:33:51;100071.69;;;30.34;45.82
8949;BME280;4509;51.522;9.910;2022-07-21T12:36:19;100071.06;;;29.90;44.84
8949;BME280;4509;51.522;9.910;2022-07-21T12:38:47;100081.84;;;29.79;45.95
8949;BME280;4509;51.522;9.910;2022-07-21T12:41:15;100083.34;;;29.75;45.74
8949;BME280;4509;51.522;9.910;2022-07-21T12:43:52;100079.06;;;29.85;44.74
8949;BME280;4509;51.522;9.910;2022-07-21T12:46:28;100079.97;;;30.09;45.16
8949;BME280;4509;51.522;9.910;2022-07-21T12:49:10;100072.16;;;30.31;45.74
8949;BME280;4509;51.522;9.910;2022-07-21T12:51:43;100077.41;;;30.56;45.91
8949;BME280;4509;51.522;9.910;2022-07-21T12:54:20;100084.41;;;30.34;44.97
8949;BME280;4509;51.522;9.910;2022-07-21T12:56:47;100069.81;;;30.35;45.79
8949;BME280;4509;51.522;9.910;2022-07-21T12:59:14;100069.44;;;30.19;45.11
8949;BME280;4509;51.522;9.910;2022-07-21T13:01:46;100072.66;;;30.51;44.70
8949;BME280;4509;51.522;9.910;2022-07-21T13:04:15;100073.25;;;30.53;45.27
8949;BME280;4509;51.522;9.910;2022-07-21T13:06:41;100052.31;;;30.49;46.41
8949;BME280;4509;51.522;9.910;2022-07-21T13:09:08;100073.88;;;30.67;44.92
8949;BME280;4509;51.522;9.910;2022-07-21T13:11:35;100058.19;;;30.46;44.81
8949;BME280;4509;51.522;9.910;2022-07-21T13:14:02;100072.44;;;30.64;45.11
8949;BME280;4509;51.522;9.910;2022-07-21T13:16:29;100072.22;;;30.66;44.90
8949;BME280;4509;51.522;9.910;2022-07-21T13:18:56;100073.19;;;30.60;45.18
8949;BME280;4509;51.522;9.910;2022-07-21T13:21:24;100064.00;;;30.73;46.25
8949;BME280;4509;51.522;9.910;2022-07-21T13:23:51;100054.56;;;30.63;47.13